首页
METAR-TAF:

METAR-TAF

机场 :

加爾維斯敦, 得克萨斯州, 美国

纬度: 29-16-13N, 经度: 094-51-51W, 海拔: 2米

当前天气观测

该预报发布于18分钟前的01:52 UTC
风速10节,风向
温度 22°C
湿度 73%
气压 1016 hPa
能見度: 16.1公里
天空无云

METAR: KGLS 060152Z AUTO 10010KT 10SM CLR 22/17 A3000 RMK AO2 SLP158 T02220167

时间: 21:10 (02:10 UTC)

预报

该预报发布于2小时和30分钟前的23:40 UTC
预报有效从06日的 00点(UTC)到 06日的 24点(UTC)
风速10节,风向东转东南
能見度: 10公里
少量云层高于3500英尺
散云层高于15000英尺
从 06日的 0900点(UTC)
风速7节,风向
能見度: 9.7公里
多云层高于10000英尺
从 06日的 1200点(UTC)
风速8节,风向
能見度: 10公里
多云层高于5000英尺
附近有阵雨
从 06日的 1500点(UTC)
风速9节,风向
能見度: 10公里
多云层高于3500英尺
附近有阵雨
从 06日的 1700点(UTC)
风速11节,风向东转东南
能見度: 10公里
多云层高于2000英尺
从 06日的 1900点(UTC)
风速13节,风向东转东南
能見度: 10公里
多云层高于1500英尺

TAF: KGLS 052340Z 0600/0624 11010KT P6SM FEW035 SCT150 FM060900 09007KT 6SM HZ BKN100 FM061200 09008KT P6SM VCSH BKN050 FM061500 10009KT P6SM VCSH BKN035 FM061700 11011KT P6SM BKN020 FM061900 12013KT P6SM BKN015

超过4000个机场的气象观测和天气预报(METAR&TAF报告)。

可查询的气象台以黄色和红色小点在地图上表示。

将鼠标移到小点上方,可查看气象台名称。

然后点击查看天气观测和预报。

如需切换地图:点击带黑十字的绿色按钮放大地图;点击带横线的绿色按钮缩小地图;或者点击绿色箭头查看邻近地区的地图。


METAR-TAF: